createdAt,value
2023-04-16T00:00:53.887Z,10.59
2023-04-16T00:01:54.025Z,10.64
2023-04-16T00:02:54.101Z,10.64
2023-04-16T00:03:54.163Z,10.67
2023-04-16T00:04:54.017Z,10.67
2023-04-16T00:05:53.994Z,10.63
2023-04-16T00:06:54.018Z,10.67
2023-04-16T00:07:54.038Z,10.67
2023-04-16T00:08:54.057Z,10.66
2023-04-16T00:09:54.083Z,10.63
2023-04-16T00:10:54.101Z,10.60
2023-04-16T00:11:54.128Z,10.67
2023-04-16T00:12:54.145Z,10.61
2023-04-16T00:13:54.166Z,10.59
2023-04-16T00:14:54.192Z,10.63
2023-04-16T00:15:54.218Z,10.63
2023-04-16T00:16:54.260Z,10.67
2023-04-16T00:17:54.269Z,10.63
2023-04-16T00:18:54.277Z,10.66
2023-04-16T00:19:54.297Z,10.67
2023-04-16T00:20:54.320Z,10.67
2023-04-16T00:21:54.353Z,10.70
2023-04-16T00:22:54.363Z,10.67
2023-04-16T00:23:54.387Z,10.59
2023-04-16T00:24:54.412Z,10.61
2023-04-16T00:25:54.429Z,10.61
2023-04-16T00:26:54.449Z,10.60
2023-04-16T00:27:54.472Z,10.55
2023-04-16T00:28:54.490Z,10.51
2023-04-16T00:29:54.518Z,10.42
2023-04-16T00:30:54.695Z,10.41
2023-04-16T00:31:54.559Z,10.44
2023-04-16T00:32:54.677Z,10.40
2023-04-16T00:33:54.603Z,10.42
2023-04-16T00:34:54.619Z,10.40
2023-04-16T00:35:54.651Z,10.44
2023-04-16T00:36:54.668Z,10.32
2023-04-16T00:37:54.684Z,10.36
2023-04-16T00:38:54.708Z,10.36
2023-04-16T00:39:54.728Z,10.38
2023-04-16T00:40:54.751Z,10.40
2023-04-16T00:41:54.775Z,10.41
2023-04-16T00:42:54.792Z,10.48
2023-04-16T00:43:54.809Z,10.51
2023-04-16T00:44:54.834Z,10.48
2023-04-16T00:45:54.907Z,10.53
2023-04-16T00:46:54.896Z,10.56
2023-04-16T00:47:54.928Z,10.56
2023-04-16T00:48:54.922Z,10.56
2023-04-16T00:49:54.944Z,10.53
2023-04-16T00:50:54.989Z,10.59
2023-04-16T00:51:54.988Z,10.56
2023-04-16T00:52:55.005Z,10.53
2023-04-16T00:53:55.028Z,10.56
2023-04-16T00:54:55.048Z,10.60
2023-04-16T00:55:55.078Z,10.56
2023-04-16T00:56:55.103Z,10.52
2023-04-16T00:57:55.131Z,10.51
2023-04-16T00:58:55.191Z,10.45
2023-04-16T00:59:55.169Z,10.44
2023-04-16T01:00:55.186Z,10.41
2023-04-16T01:01:55.277Z,10.40
2023-04-16T01:02:55.300Z,10.40
2023-04-16T01:03:55.339Z,10.40
2023-04-16T01:04:55.268Z,10.36
2023-04-16T01:05:55.281Z,10.44
2023-04-16T01:06:55.309Z,10.26
2023-04-16T01:07:55.332Z,10.36
2023-04-16T01:08:55.354Z,10.25
2023-04-16T01:09:55.381Z,10.26
2023-04-16T01:10:55.397Z,10.32
2023-04-16T01:11:55.419Z,10.27
2023-04-16T01:12:55.440Z,10.29
2023-04-16T01:13:55.459Z,10.30
2023-04-16T01:14:55.480Z,10.29
2023-04-16T01:15:55.528Z,10.33
2023-04-16T01:16:55.527Z,10.25
2023-04-16T01:17:55.575Z,10.34
2023-04-16T01:18:55.570Z,10.26
2023-04-16T01:19:55.594Z,10.32
2023-04-16T01:20:55.618Z,10.33
2023-04-16T01:21:55.632Z,10.26
2023-04-16T01:22:55.653Z,10.34
2023-04-16T01:23:55.702Z,10.29
2023-04-16T01:24:55.700Z,10.29
2023-04-16T01:25:55.717Z,10.34
2023-04-16T01:26:55.739Z,10.38
2023-04-16T01:27:55.760Z,10.30
2023-04-16T01:28:55.790Z,10.29
2023-04-16T01:29:55.803Z,10.27
2023-04-16T01:30:55.861Z,10.36
2023-04-16T01:31:55.857Z,10.26
2023-04-16T01:32:55.909Z,10.45
2023-04-16T01:33:55.932Z,10.33
2023-04-16T01:34:55.912Z,10.34
2023-04-16T01:35:55.937Z,10.36
2023-04-16T01:36:55.958Z,10.38
2023-04-16T01:37:55.985Z,10.38
2023-04-16T01:38:56.005Z,10.40
2023-04-16T01:39:56.024Z,10.41
2023-04-16T01:40:56.042Z,10.41
2023-04-16T01:41:56.062Z,10.36
2023-04-16T01:42:56.083Z,10.44
2023-04-16T01:43:56.122Z,10.40
2023-04-16T01:44:56.128Z,10.42
2023-04-16T01:45:56.151Z,10.36
2023-04-16T01:46:56.274Z,10.38
2023-04-16T01:47:56.280Z,10.44
2023-04-16T01:48:56.218Z,10.44
2023-04-16T01:49:56.234Z,10.41
2023-04-16T01:50:56.270Z,10.40
2023-04-16T01:51:56.278Z,10.45
2023-04-16T01:52:56.299Z,10.45
2023-04-16T01:53:56.320Z,10.47
2023-04-16T01:54:56.347Z,10.47
2023-04-16T01:55:56.366Z,10.52
2023-04-16T01:56:56.385Z,10.55
2023-04-16T01:57:56.416Z,10.51
2023-04-16T01:58:56.438Z,10.52
2023-04-16T01:59:56.455Z,10.53
2023-04-16T02:00:56.508Z,10.55
2023-04-16T02:01:56.561Z,10.55
2023-04-16T02:02:56.696Z,10.56
2023-04-16T02:03:56.616Z,10.56
2023-04-16T02:04:56.561Z,10.56
2023-04-16T02:05:56.577Z,10.64
2023-04-16T02:06:56.603Z,10.60
2023-04-16T02:07:56.625Z,10.61
2023-04-16T02:08:56.646Z,10.59
2023-04-16T02:09:56.667Z,10.59
2023-04-16T02:10:56.686Z,10.61
2023-04-16T02:11:56.709Z,10.63
2023-04-16T02:12:56.727Z,10.66
2023-04-16T02:13:56.751Z,10.55
2023-04-16T02:14:56.778Z,10.68
2023-04-16T02:15:56.802Z,10.61
2023-04-16T02:16:56.903Z,10.63
2023-04-16T02:17:56.970Z,10.64
2023-04-16T02:18:56.918Z,10.59
2023-04-16T02:19:56.883Z,10.63
2023-04-16T02:20:56.908Z,10.61
2023-04-16T02:21:56.922Z,10.64
2023-04-16T02:22:56.955Z,10.63
2023-04-16T02:23:56.976Z,10.66
2023-04-16T02:24:56.988Z,10.63
2023-04-16T02:25:57.303Z,10.60
2023-04-16T02:26:57.045Z,10.60
2023-04-16T02:27:57.057Z,10.74
2023-04-16T02:28:57.105Z,10.66
2023-04-16T02:29:57.091Z,10.64
2023-04-16T02:30:57.116Z,10.60
2023-04-16T02:31:57.199Z,10.61
2023-04-16T02:32:57.200Z,10.63
2023-04-16T02:33:57.179Z,10.59
2023-04-16T02:34:57.202Z,10.64
2023-04-16T02:35:57.224Z,10.55
2023-04-16T02:36:57.248Z,10.67
2023-04-16T02:37:57.264Z,10.63
2023-04-16T02:38:57.294Z,10.56
2023-04-16T02:39:57.311Z,10.64
2023-04-16T02:40:57.330Z,10.63
2023-04-16T02:41:57.351Z,10.56
2023-04-16T02:42:57.373Z,10.53
2023-04-16T02:43:57.414Z,10.59
2023-04-16T02:44:57.417Z,10.55
2023-04-16T02:45:57.457Z,10.59
2023-04-16T02:46:57.463Z,10.51
2023-04-16T02:47:57.508Z,10.48
2023-04-16T02:48:57.510Z,10.55
2023-04-16T02:49:57.522Z,10.60
2023-04-16T02:50:57.544Z,10.55
2023-04-16T02:51:57.567Z,10.53
2023-04-16T02:52:57.628Z,10.59
2023-04-16T02:53:57.616Z,10.55
2023-04-16T02:54:57.640Z,10.51
2023-04-16T02:55:57.654Z,10.52
2023-04-16T02:56:57.677Z,10.53
2023-04-16T02:57:57.705Z,10.56
2023-04-16T02:58:57.728Z,10.51
2023-04-16T02:59:57.743Z,10.40
2023-04-16T03:00:57.777Z,10.41
2023-04-16T03:01:57.882Z,10.47
2023-04-16T03:02:57.875Z,10.42
2023-04-16T03:03:57.870Z,10.40
2023-04-16T03:04:57.857Z,10.40
2023-04-16T03:05:57.869Z,10.45
2023-04-16T03:06:57.894Z,10.41
2023-04-16T03:07:57.912Z,10.38
2023-04-16T03:08:57.933Z,10.40
2023-04-16T03:09:57.963Z,10.41
2023-04-16T03:10:58.001Z,10.32
2023-04-16T03:11:58.001Z,10.36
2023-04-16T03:12:58.027Z,10.38
2023-04-16T03:13:58.042Z,10.30
2023-04-16T03:14:58.070Z,10.32
2023-04-16T03:15:58.131Z,10.27
2023-04-16T03:16:58.120Z,10.27
2023-04-16T03:17:58.198Z,10.29
2023-04-16T03:18:58.158Z,10.30
2023-04-16T03:19:58.173Z,10.32
2023-04-16T03:20:58.193Z,10.30
2023-04-16T03:21:58.220Z,10.29
2023-04-16T03:22:58.234Z,10.30
2023-04-16T03:23:58.273Z,10.23
2023-04-16T03:24:58.281Z,10.27
2023-04-16T03:25:58.306Z,10.22
2023-04-16T03:26:58.355Z,10.23
2023-04-16T03:27:58.346Z,10.26
2023-04-16T03:28:58.370Z,10.25
2023-04-16T03:29:58.385Z,10.18
2023-04-16T03:30:58.482Z,10.17
2023-04-16T03:31:58.457Z,10.27
2023-04-16T03:32:58.500Z,10.22
2023-04-16T03:33:58.482Z,10.20
2023-04-16T03:34:58.495Z,10.18
2023-04-16T03:35:58.519Z,10.25
2023-04-16T03:36:58.537Z,10.23
2023-04-16T03:37:58.564Z,10.22
2023-04-16T03:38:58.581Z,10.18
2023-04-16T03:39:58.603Z,10.20
2023-04-16T03:40:58.623Z,10.22
2023-04-16T03:41:58.650Z,10.26
2023-04-16T03:42:58.663Z,10.25
2023-04-16T03:43:58.691Z,10.27
2023-04-16T03:44:58.708Z,10.26
2023-04-16T03:45:58.729Z,10.18
2023-04-16T03:46:58.984Z,10.26
2023-04-16T03:47:58.804Z,10.25
2023-04-16T03:48:58.821Z,10.30
2023-04-16T03:49:58.817Z,10.20
2023-04-16T03:50:58.835Z,10.32
2023-04-16T03:51:58.865Z,10.27
2023-04-16T03:52:58.888Z,10.27
2023-04-16T03:53:58.900Z,10.34
2023-04-16T03:54:58.932Z,10.33
2023-04-16T03:55:58.948Z,10.32
2023-04-16T03:56:58.973Z,10.27
2023-04-16T03:57:59.002Z,10.29
2023-04-16T03:58:59.007Z,10.30
2023-04-16T03:59:59.032Z,10.27
2023-04-16T04:00:59.047Z,10.32
2023-04-16T04:01:59.126Z,10.15
2023-04-16T04:02:59.166Z,10.17
2023-04-16T04:03:59.227Z,10.17
2023-04-16T04:04:59.184Z,10.20
2023-04-16T04:05:59.159Z,10.23
2023-04-16T04:06:59.176Z,10.15
2023-04-16T04:07:59.202Z,10.18
2023-04-16T04:08:59.223Z,10.20
2023-04-16T04:09:59.242Z,10.17
2023-04-16T04:10:59.280Z,10.17
2023-04-16T04:11:59.285Z,10.07
2023-04-16T04:12:59.305Z,10.12
2023-04-16T04:13:59.332Z,10.11
2023-04-16T04:14:59.348Z,10.08
2023-04-16T04:15:59.396Z,10.05
2023-04-16T04:16:59.391Z,10.02
2023-04-16T04:17:59.477Z,9.99
2023-04-16T04:18:59.447Z,10.01
2023-04-16T04:20:01.244Z,9.97
2023-04-16T04:20:59.484Z,9.94
2023-04-16T04:21:59.497Z,10.02
2023-04-16T04:22:59.530Z,9.91
2023-04-16T04:23:59.552Z,9.94
2023-04-16T04:24:59.559Z,9.93
2023-04-16T04:25:59.640Z,9.91
2023-04-16T04:26:59.604Z,9.87
2023-04-16T04:27:59.635Z,9.90
2023-04-16T04:28:59.648Z,9.86
2023-04-16T04:29:59.667Z,9.91
2023-04-16T04:30:59.685Z,9.89
2023-04-16T04:31:59.763Z,9.93
2023-04-16T04:32:59.769Z,9.87
2023-04-16T04:33:59.749Z,9.94
2023-04-16T04:34:59.778Z,9.91
2023-04-16T04:35:59.801Z,9.91
2023-04-16T04:36:59.809Z,9.97
2023-04-16T04:37:59.837Z,9.93
2023-04-16T04:38:59.850Z,9.99
2023-04-16T04:39:59.881Z,9.96
2023-04-16T04:40:59.897Z,9.96
2023-04-16T04:41:59.923Z,9.94
2023-04-16T04:42:59.936Z,9.97
2023-04-16T04:43:59.970Z,9.94
2023-04-16T04:44:59.994Z,9.89
2023-04-16T04:46:00.027Z,9.90
2023-04-16T04:47:00.025Z,9.87
2023-04-16T04:48:00.110Z,9.91
2023-04-16T04:49:00.062Z,9.93
2023-04-16T04:50:00.121Z,10.01
2023-04-16T04:51:00.140Z,9.93
2023-04-16T04:52:00.161Z,9.94
2023-04-16T04:53:00.153Z,9.93
2023-04-16T04:54:00.179Z,9.96
2023-04-16T04:55:00.193Z,9.97
2023-04-16T04:56:09.280Z,9.96
2023-04-16T04:57:00.229Z,9.93
2023-04-16T04:58:00.251Z,9.97
2023-04-16T04:59:00.272Z,9.91
2023-04-16T05:00:00.296Z,10.01
2023-04-16T05:01:00.364Z,9.87
2023-04-16T05:02:00.368Z,9.93
2023-04-16T05:03:00.424Z,9.93
2023-04-16T05:04:00.433Z,9.94
2023-04-16T05:05:00.466Z,9.89
2023-04-16T05:06:00.428Z,9.94
2023-04-16T05:07:00.445Z,9.90
2023-04-16T05:08:00.467Z,9.91
2023-04-16T05:09:00.512Z,9.93
2023-04-16T05:10:00.508Z,9.93
2023-04-16T05:11:00.537Z,9.96
2023-04-16T05:12:00.560Z,9.94
2023-04-16T05:13:00.569Z,9.99
2023-04-16T05:14:00.591Z,9.96
2023-04-16T05:15:00.612Z,9.96
2023-04-16T05:16:00.637Z,9.96
2023-04-16T05:17:00.738Z,9.96
2023-04-16T05:18:00.701Z,10.04
2023-04-16T05:19:00.696Z,10.01
2023-04-16T05:20:00.717Z,9.94
2023-04-16T05:21:00.748Z,10.05
2023-04-16T05:22:00.877Z,10.08
2023-04-16T05:23:00.799Z,10.07
2023-04-16T05:24:00.797Z,10.05
2023-04-16T05:25:00.823Z,10.14
2023-04-16T05:26:00.861Z,10.05
2023-04-16T05:27:00.868Z,9.96
2023-04-16T05:28:00.887Z,10.04
2023-04-16T05:29:00.909Z,9.97
2023-04-16T05:30:00.934Z,10.09
2023-04-16T05:31:00.989Z,9.96
2023-04-16T05:32:00.976Z,9.99
2023-04-16T05:33:01.040Z,10.02
2023-04-16T05:34:01.016Z,10.05
2023-04-16T05:35:01.038Z,10.05
2023-04-16T05:36:01.084Z,10.02
2023-04-16T05:37:01.081Z,10.05
2023-04-16T05:38:01.115Z,10.07
2023-04-16T05:39:01.134Z,10.04
2023-04-16T05:40:01.148Z,10.04
2023-04-16T05:41:01.198Z,10.04
2023-04-16T05:42:01.197Z,10.11
2023-04-16T05:43:01.212Z,10.17
2023-04-16T05:44:01.250Z,10.15
2023-04-16T05:45:01.249Z,10.25
2023-04-16T05:46:01.386Z,10.17
2023-04-16T05:47:01.309Z,10.25
2023-04-16T05:48:01.332Z,10.26
2023-04-16T05:49:01.328Z,10.20
2023-04-16T05:50:01.456Z,10.29
2023-04-16T05:51:01.381Z,10.34
2023-04-16T05:52:01.398Z,10.27
2023-04-16T05:53:01.427Z,10.38
2023-04-16T05:54:01.445Z,10.38
2023-04-16T05:55:01.792Z,10.40
2023-04-16T05:56:01.542Z,10.40
2023-04-16T05:57:01.497Z,10.44
2023-04-16T05:58:01.533Z,10.45
2023-04-16T05:59:01.589Z,10.44
2023-04-16T06:00:01.572Z,10.44
2023-04-16T06:01:01.587Z,10.44
2023-04-16T06:02:01.680Z,10.40
2023-04-16T06:03:01.817Z,10.40
2023-04-16T06:04:01.792Z,10.26
2023-04-16T06:05:01.831Z,10.40
2023-04-16T06:06:01.766Z,10.38
2023-04-16T06:07:01.736Z,10.34
2023-04-16T06:08:01.739Z,10.41
2023-04-16T06:09:01.757Z,10.34
2023-04-16T06:10:01.800Z,10.41
2023-04-16T06:11:01.802Z,10.42
2023-04-16T06:12:01.846Z,10.34
2023-04-16T06:13:01.890Z,10.32
2023-04-16T06:14:01.871Z,10.36
2023-04-16T06:15:01.987Z,10.42
2023-04-16T06:16:01.933Z,10.52
2023-04-16T06:17:01.935Z,10.51
2023-04-16T06:18:01.998Z,10.59
2023-04-16T06:19:01.976Z,10.61
2023-04-16T06:20:02.005Z,10.48
2023-04-16T06:21:02.026Z,10.52
2023-04-16T06:22:02.040Z,10.59
2023-04-16T06:23:02.063Z,10.63
2023-04-16T06:24:02.092Z,10.63
2023-04-16T06:25:02.120Z,10.55
2023-04-16T06:26:02.204Z,10.59
2023-04-16T06:27:02.151Z,10.55
2023-04-16T06:28:02.169Z,10.48
2023-04-16T06:29:02.191Z,10.52
2023-04-16T06:30:02.211Z,10.56
2023-04-16T06:31:02.284Z,10.63
2023-04-16T06:32:02.267Z,10.61
2023-04-16T06:33:02.322Z,10.61
2023-04-16T06:34:02.300Z,10.63
2023-04-16T06:35:02.343Z,10.63
2023-04-16T06:36:02.356Z,10.67
2023-04-16T06:37:02.375Z,10.61
2023-04-16T06:38:02.384Z,10.61
2023-04-16T06:39:02.412Z,10.64
2023-04-16T06:40:02.427Z,10.61
2023-04-16T06:41:02.451Z,10.55
2023-04-16T06:42:02.469Z,10.64
2023-04-16T06:43:02.494Z,10.67
2023-04-16T06:44:02.514Z,10.76
2023-04-16T06:45:02.553Z,10.70
2023-04-16T06:46:02.557Z,10.76
2023-04-16T06:47:02.650Z,10.81
2023-04-16T06:48:02.607Z,10.74
2023-04-16T06:49:02.627Z,10.81
2023-04-16T06:50:02.653Z,10.79
2023-04-16T06:51:02.666Z,10.81
2023-04-16T06:52:03.960Z,10.89
2023-04-16T06:53:02.709Z,10.91
2023-04-16T06:54:02.730Z,10.94
2023-04-16T06:55:02.757Z,10.97
2023-04-16T06:56:02.781Z,10.97
2023-04-16T06:57:02.812Z,10.86
2023-04-16T06:58:02.821Z,10.88
2023-04-16T06:59:02.840Z,10.91
2023-04-16T07:00:02.862Z,10.92
2023-04-16T07:01:02.927Z,10.92
2023-04-16T07:02:02.958Z,10.92
2023-04-16T07:03:03.052Z,10.86
2023-04-16T07:04:03.058Z,11.00
2023-04-16T07:05:02.973Z,11.03
2023-04-16T07:06:02.993Z,11.02
2023-04-16T07:07:03.017Z,11.03
2023-04-16T07:08:03.047Z,10.99
2023-04-16T07:09:03.063Z,11.11
2023-04-16T07:10:03.083Z,11.06
2023-04-16T07:11:03.110Z,11.17
2023-04-16T07:12:03.128Z,11.17
2023-04-16T07:13:03.172Z,11.14
2023-04-16T07:14:03.171Z,11.14
2023-04-16T07:15:03.193Z,11.22
2023-04-16T07:16:03.229Z,11.24
2023-04-16T07:17:03.238Z,11.24
2023-04-16T07:18:03.313Z,11.21
2023-04-16T07:19:03.280Z,11.22
2023-04-16T07:20:03.317Z,11.25
2023-04-16T07:21:03.344Z,11.25
2023-04-16T07:22:03.346Z,11.22
2023-04-16T07:23:03.373Z,11.19
2023-04-16T07:24:03.400Z,11.33
2023-04-16T07:25:03.412Z,11.37
2023-04-16T07:26:03.435Z,11.22
2023-04-16T07:27:03.461Z,11.27
2023-04-16T07:28:03.484Z,11.25
2023-04-16T07:29:03.504Z,11.39
2023-04-16T07:30:03.523Z,11.33
2023-04-16T07:31:03.548Z,11.37
2023-04-16T07:32:03.637Z,11.36
2023-04-16T07:33:03.630Z,11.33
2023-04-16T07:34:03.616Z,11.39
2023-04-16T07:35:03.644Z,11.37
2023-04-16T07:36:03.663Z,11.40
2023-04-16T07:37:03.724Z,11.39
2023-04-16T07:38:03.698Z,11.46
2023-04-16T07:39:03.726Z,11.39
2023-04-16T07:40:03.746Z,11.42
2023-04-16T07:41:03.775Z,11.37
2023-04-16T07:42:03.788Z,11.44
2023-04-16T07:43:03.819Z,11.39
2023-04-16T07:44:03.854Z,11.51
2023-04-16T07:45:03.861Z,11.51
2023-04-16T07:46:03.959Z,11.47
2023-04-16T07:47:05.573Z,11.47
2023-04-16T07:48:03.983Z,11.60
2023-04-16T07:49:03.947Z,11.46
2023-04-16T07:50:03.976Z,11.37
2023-04-16T07:51:04.005Z,11.44
2023-04-16T07:52:04.011Z,11.57
2023-04-16T07:53:04.033Z,11.42
2023-04-16T07:54:04.057Z,11.54
2023-04-16T07:55:04.079Z,11.55
2023-04-16T07:56:04.101Z,11.52
2023-04-16T07:57:04.137Z,11.44
2023-04-16T07:58:04.149Z,11.43
2023-04-16T07:59:18.402Z,11.43
2023-04-16T08:00:04.192Z,11.49
2023-04-16T08:01:04.216Z,11.47
2023-04-16T08:02:04.317Z,11.47
2023-04-16T08:03:04.438Z,11.51
2023-04-16T08:04:04.438Z,11.54
2023-04-16T08:05:04.386Z,11.60
2023-04-16T08:06:04.327Z,11.70
2023-04-16T08:07:04.345Z,11.78
2023-04-16T08:08:04.369Z,11.80
2023-04-16T08:09:04.396Z,11.88
2023-04-16T08:10:04.433Z,11.94
2023-04-16T08:11:04.451Z,11.88
2023-04-16T08:12:04.473Z,11.95
2023-04-16T08:13:04.484Z,11.94
2023-04-16T08:14:04.513Z,12.07
2023-04-16T08:15:04.526Z,12.14
2023-04-16T08:16:04.565Z,12.04
2023-04-16T08:17:04.575Z,12.17
2023-04-16T08:18:04.670Z,12.19
2023-04-16T08:19:04.620Z,12.23
2023-04-16T08:20:04.645Z,12.27
2023-04-16T08:21:04.677Z,12.29
2023-04-16T08:22:04.694Z,12.32
2023-04-16T08:23:04.732Z,12.46
2023-04-16T08:24:04.766Z,12.41
2023-04-16T08:25:04.785Z,12.42
2023-04-16T08:26:04.803Z,12.35
2023-04-16T08:27:15.422Z,12.42
2023-04-16T08:28:04.860Z,12.54
2023-04-16T08:29:04.885Z,12.53
2023-04-16T08:30:04.889Z,12.57
2023-04-16T08:31:04.929Z,12.64
2023-04-16T08:32:04.942Z,12.53
2023-04-16T08:33:05.029Z,12.49
2023-04-16T08:34:04.984Z,12.47
2023-04-16T08:35:05.017Z,12.50
2023-04-16T08:36:05.076Z,12.50
2023-04-16T08:37:05.061Z,12.47
2023-04-16T08:38:05.117Z,12.62
2023-04-16T08:39:05.108Z,12.62
2023-04-16T08:40:05.138Z,12.59
2023-04-16T08:41:05.162Z,12.60
2023-04-16T08:42:05.179Z,12.64
2023-04-16T08:43:05.195Z,12.72
2023-04-16T08:44:05.222Z,12.77
2023-04-16T08:45:05.242Z,12.86
2023-04-16T08:46:05.330Z,12.86
2023-04-16T08:47:05.353Z,12.92
2023-04-16T08:48:05.327Z,12.92
2023-04-16T08:49:05.334Z,12.97
2023-04-16T08:50:05.352Z,12.90
2023-04-16T08:51:05.373Z,12.96
2023-04-16T08:52:05.398Z,13.15
2023-04-16T08:53:05.424Z,13.30
2023-04-16T08:54:05.458Z,13.30
2023-04-16T08:55:05.479Z,13.39
2023-04-16T08:56:05.506Z,13.45
2023-04-16T08:57:05.530Z,13.36
2023-04-16T08:58:05.543Z,13.32
2023-04-16T08:59:05.595Z,13.45
2023-04-16T09:00:05.595Z,13.48
2023-04-16T09:01:05.606Z,13.45
2023-04-16T09:02:05.724Z,13.49
2023-04-16T09:03:05.755Z,13.55
2023-04-16T09:04:05.876Z,13.63
2023-04-16T09:05:05.697Z,13.64
2023-04-16T09:06:05.743Z,13.71
2023-04-16T09:07:05.745Z,13.77
2023-04-16T09:08:05.794Z,13.87
2023-04-16T09:09:05.814Z,13.91
2023-04-16T09:10:05.833Z,13.91
2023-04-16T09:11:05.885Z,13.95
2023-04-16T09:12:05.877Z,13.97
2023-04-16T09:13:05.894Z,13.91
2023-04-16T09:14:05.932Z,14.04
2023-04-16T09:15:05.974Z,14.04
2023-04-16T09:16:06.000Z,14.15
2023-04-16T09:17:05.998Z,14.14
2023-04-16T09:18:06.018Z,14.12
2023-04-16T09:19:06.065Z,14.28
2023-04-16T09:20:06.066Z,14.27
2023-04-16T09:21:06.111Z,14.25
2023-04-16T09:22:06.142Z,14.28
2023-04-16T09:23:06.158Z,14.32
2023-04-16T09:24:06.168Z,14.37
2023-04-16T09:25:06.191Z,14.39
2023-04-16T09:26:06.244Z,14.37
2023-04-16T09:27:06.238Z,14.35
2023-04-16T09:28:06.271Z,14.43
2023-04-16T09:29:06.379Z,14.39
2023-04-16T09:30:06.342Z,14.37
2023-04-16T09:31:06.342Z,14.35
2023-04-16T09:32:06.461Z,14.28
2023-04-16T09:33:06.398Z,14.28
2023-04-16T09:34:06.458Z,14.29
2023-04-16T09:35:06.555Z,14.32
2023-04-16T09:36:06.526Z,14.33
2023-04-16T09:37:06.490Z,14.29
2023-04-16T09:38:06.545Z,14.27
2023-04-16T09:39:06.613Z,14.32
2023-04-16T09:40:06.623Z,14.25
2023-04-16T09:41:06.604Z,14.28
2023-04-16T09:42:06.616Z,14.21
2023-04-16T09:43:06.639Z,14.20
2023-04-16T09:44:06.664Z,14.06
2023-04-16T09:45:06.776Z,14.02
2023-04-16T09:46:08.079Z,13.92
2023-04-16T09:47:06.743Z,13.89
2023-04-16T09:48:06.786Z,13.85
2023-04-16T09:49:06.848Z,13.69
2023-04-16T09:50:06.813Z,13.62
2023-04-16T09:51:06.833Z,13.67
2023-04-16T09:52:06.863Z,13.63
2023-04-16T09:53:06.887Z,13.46
2023-04-16T09:54:06.939Z,13.30
2023-04-16T09:55:06.943Z,13.38
2023-04-16T09:56:06.974Z,13.28
2023-04-16T09:57:06.983Z,13.32
2023-04-16T09:58:07.006Z,13.23
2023-04-16T09:59:07.034Z,13.15
2023-04-16T10:00:07.063Z,13.12
2023-04-16T10:01:07.114Z,13.11
2023-04-16T10:02:13.851Z,13.03
2023-04-16T10:03:07.519Z,12.97
2023-04-16T10:04:07.223Z,13.08
2023-04-16T10:05:07.173Z,13.07
2023-04-16T10:06:07.212Z,13.07
2023-04-16T10:07:07.221Z,13.03
2023-04-16T10:08:07.248Z,13.00
2023-04-16T10:09:07.345Z,13.01
2023-04-16T10:10:07.295Z,13.01
2023-04-16T10:11:07.368Z,13.03
2023-04-16T10:12:07.361Z,13.14
2023-04-16T10:13:07.361Z,13.14
2023-04-16T10:14:07.383Z,13.12
2023-04-16T10:15:07.408Z,13.25
2023-04-16T10:16:07.435Z,13.17
2023-04-16T10:17:07.486Z,13.17
2023-04-16T10:18:07.502Z,13.14
2023-04-16T10:19:07.641Z,13.19
2023-04-16T10:20:07.529Z,13.04
2023-04-16T10:21:07.552Z,13.11
2023-04-16T10:22:07.592Z,13.14
2023-04-16T10:23:07.601Z,13.00
2023-04-16T10:24:07.637Z,12.93
2023-04-16T10:25:07.654Z,12.95
2023-04-16T10:26:07.677Z,12.97
2023-04-16T10:27:07.691Z,12.89
2023-04-16T10:28:07.712Z,13.01
2023-04-16T10:29:07.866Z,12.95
2023-04-16T10:30:07.764Z,13.05
2023-04-16T10:31:07.829Z,13.03
2023-04-16T10:32:07.801Z,13.01
2023-04-16T10:33:07.938Z,13.01
2023-04-16T10:34:07.854Z,13.03
2023-04-16T10:35:07.876Z,13.07
2023-04-16T10:36:08.229Z,13.07
2023-04-16T10:37:07.922Z,13.07
2023-04-16T10:38:07.944Z,13.10
2023-04-16T10:39:08.089Z,13.05
2023-04-16T10:40:07.990Z,13.08
2023-04-16T10:41:08.011Z,13.17
2023-04-16T10:42:08.046Z,13.28
2023-04-16T10:43:08.067Z,13.41
2023-04-16T10:44:08.085Z,13.44
2023-04-16T10:45:08.110Z,13.36
2023-04-16T10:46:08.141Z,13.39
2023-04-16T10:47:08.151Z,13.38
2023-04-16T10:48:08.176Z,13.30
2023-04-16T10:49:08.405Z,13.39
2023-04-16T10:50:08.222Z,13.44
2023-04-16T10:51:08.247Z,13.42
2023-04-16T10:52:08.274Z,13.44
2023-04-16T10:53:08.290Z,13.59
2023-04-16T10:54:08.322Z,13.60
2023-04-16T10:55:08.341Z,13.57
2023-04-16T10:56:08.375Z,13.69
2023-04-16T10:57:08.392Z,13.67
2023-04-16T10:58:08.416Z,13.77
2023-04-16T10:59:08.517Z,13.73
2023-04-16T11:00:08.460Z,13.73
2023-04-16T11:01:08.481Z,13.78
2023-04-16T11:02:08.631Z,13.70
2023-04-16T11:03:08.654Z,13.82
2023-04-16T11:04:08.721Z,13.88
2023-04-16T11:05:08.578Z,14.00
2023-04-16T11:06:08.603Z,14.10
2023-04-16T11:07:08.637Z,14.18
2023-04-16T11:08:08.662Z,14.21
2023-04-16T11:09:08.729Z,14.15
2023-04-16T11:10:08.703Z,14.12
2023-04-16T11:11:08.734Z,14.21
2023-04-16T11:12:08.751Z,14.12
2023-04-16T11:13:08.766Z,14.24
2023-04-16T11:14:08.797Z,14.18
2023-04-16T11:15:08.839Z,14.21
2023-04-16T11:16:08.879Z,14.17
2023-04-16T11:17:08.870Z,14.02
2023-04-16T11:18:08.935Z,14.02
2023-04-16T11:19:09.176Z,14.07
2023-04-16T11:20:19.211Z,14.02
2023-04-16T11:21:08.966Z,13.99
2023-04-16T11:22:08.992Z,14.00
2023-04-16T11:23:09.033Z,13.99
2023-04-16T11:24:09.043Z,14.07
2023-04-16T11:25:09.065Z,14.02
2023-04-16T11:26:09.085Z,13.88
2023-04-16T11:27:09.136Z,13.91
2023-04-16T11:28:09.138Z,13.96
2023-04-16T11:29:09.294Z,14.03
2023-04-16T11:30:09.191Z,14.09
2023-04-16T11:31:09.312Z,14.02
2023-04-16T11:32:09.235Z,14.18
2023-04-16T11:33:09.254Z,14.24
2023-04-16T11:34:09.289Z,14.27
2023-04-16T11:35:09.311Z,14.25
2023-04-16T11:36:09.348Z,14.28
2023-04-16T11:37:09.356Z,14.39
2023-04-16T11:38:09.382Z,14.42
2023-04-16T11:39:09.701Z,14.51
2023-04-16T11:40:09.436Z,14.54
2023-04-16T11:41:09.476Z,14.65
2023-04-16T11:42:09.546Z,14.61
2023-04-16T11:43:09.501Z,14.62
2023-04-16T11:44:09.529Z,14.69
2023-04-16T11:45:09.564Z,14.62
2023-04-16T11:46:20.581Z,14.69
2023-04-16T11:47:09.689Z,14.62
2023-04-16T11:48:11.161Z,14.65
2023-04-16T11:49:09.874Z,14.70
2023-04-16T11:50:09.678Z,14.84
2023-04-16T11:51:09.725Z,14.84
2023-04-16T11:52:09.741Z,14.94
2023-04-16T11:53:09.777Z,15.06
2023-04-16T11:54:12.076Z,15.07
2023-04-16T11:55:09.823Z,15.10
2023-04-16T11:56:09.860Z,15.20
2023-04-16T11:57:09.867Z,15.23
2023-04-16T11:58:09.899Z,15.31
2023-04-16T11:59:10.255Z,15.27
2023-04-16T12:00:10.671Z,15.34
2023-04-16T12:01:09.974Z,15.32
2023-04-16T12:02:10.111Z,15.36
2023-04-16T12:03:10.327Z,15.35
2023-04-16T12:04:10.421Z,15.36
2023-04-16T12:05:10.182Z,15.47
2023-04-16T12:06:10.114Z,15.43
2023-04-16T12:07:10.130Z,15.38
2023-04-16T12:08:10.148Z,15.41
2023-04-16T12:09:10.380Z,15.53
2023-04-16T12:10:10.190Z,15.68
2023-04-16T12:11:10.285Z,15.69
2023-04-16T12:12:10.243Z,15.83
2023-04-16T12:13:10.270Z,15.78
2023-04-16T12:14:10.294Z,15.90
2023-04-16T12:15:10.318Z,15.75
2023-04-16T12:16:10.379Z,15.83
2023-04-16T12:17:10.396Z,15.71
2023-04-16T12:18:10.402Z,15.72
2023-04-16T12:19:10.510Z,15.53
2023-04-16T12:20:10.461Z,15.41
2023-04-16T12:21:10.475Z,15.41
2023-04-16T12:22:10.497Z,15.39
2023-04-16T12:23:10.527Z,15.39
2023-04-16T12:24:10.553Z,15.25
2023-04-16T12:25:10.589Z,15.31
2023-04-16T12:26:11.027Z,15.23
2023-04-16T12:27:10.633Z,15.19
2023-04-16T12:28:10.653Z,15.25
2023-04-16T12:29:10.774Z,15.21
2023-04-16T12:30:10.756Z,15.20
2023-04-16T12:31:10.821Z,15.25
2023-04-16T12:32:10.762Z,15.21
2023-04-16T12:33:10.844Z,15.23
2023-04-16T12:34:10.815Z,15.25
2023-04-16T12:35:10.833Z,15.27
2023-04-16T12:36:10.858Z,15.31
2023-04-16T12:37:10.882Z,15.20
2023-04-16T12:38:11.020Z,15.23
2023-04-16T12:39:11.024Z,15.31
2023-04-16T12:40:11.037Z,15.32
2023-04-16T12:41:10.982Z,15.34
2023-04-16T12:42:11.011Z,15.38
2023-04-16T12:43:11.043Z,15.41
2023-04-16T12:44:11.057Z,15.32
2023-04-16T12:45:11.106Z,15.29
2023-04-16T12:46:11.148Z,15.31
2023-04-16T12:47:11.150Z,15.38
2023-04-16T12:48:11.163Z,15.29
2023-04-16T12:49:11.376Z,15.20
2023-04-16T12:50:11.257Z,15.25
2023-04-16T12:51:11.258Z,15.20
2023-04-16T12:52:11.281Z,15.19
2023-04-16T12:53:11.291Z,15.23
2023-04-16T12:54:11.317Z,15.21
2023-04-16T12:55:11.336Z,15.21